Etusivu
METAR-TAF:

METAR-TAF

Lentoasemat :

Bamako, Mali

Senoun kansainvälinen lentoasema

Leveyspiiri: 12-32N, Pituuspiiri: 007-57W, korkeus merenpinnasta: 380 m

Tämänhetkinen sää

Tämä raportti tehtiin 18 tuntia ja 0 minuuttia sitten, kello 15.00 UTC
Tuuli 6 kn pohjoisesta/koillisesta
Lämpötila 37°C
Kosteus 11%
Ilmanpaine 1009 hPa
Näkyvyys 10 km tai enemmän
ei pilviä alle 1500 m:ssä eikä cumulonimbus-pilviä

METAR: GABS 201500Z 02006KT CAVOK 37/02 Q1009 NOSIG

Aika: 09:00 (09:00 UTC)

Sääennuste

Tämä raportti tehtiin 22 tuntia ja 0 minuuttia sitten, kello 11.00 UTC
Ennuste voimassa 20. päivästä klo 12 UTC - 21. päivään klo 18 UTC
Tuuli 10 kn idästä/koillisesta
Näkyvyys: 8000 m
Tulossa
20. päivästä klo 16 UTC - 20. päivään klo 18 UTC
Tuuli 8 kn pohjoisesta/koillisesta

TAF: GABS 201100Z 2012/2118 06010KT 8000 NSC BECMG 2016/2018 02008KT

Säähavainnot ja -ennusteet yli 4000 lentoasemalta (METAR- ja TAF-raportit).

Käytössä olevat sääasemat on merkitty karttaan keltaisilla ja punaisilla pisteillä.

Aseta hiiri pisteen päälle nähdäksesi sääaseman nimen.

Klikkaa sitten nähdäksesi säähavainnot ja -ennusteet.

Kartan vaihtaminen: klikkaa mustalla rastilla varustettuja vihreitä pisteitä, niin voit zoomata sisään; viivalla varustettua vihreää pistettä, niin voit zoomata ulos tai vihreitä nuolia, niin pääset viereisille kartoille.


METAR-TAF: